PWSweather.com
Personal Weather Stations
Station Observations
2450ARBOR
Round Rock, TX 78681

Round Rock, TX 78681

Lat: 30.535239, Lon: -97.728137

Elevation: 800

Station Type:

Latest ConditionsUpdated 3:40:37 PM CDT Wednesday, Jun 20, 2018
Currently Today's Max Today's Min Today's Average
Temperature 88.5°F31.4°C 89.4°F31.9°C 73.8°F23.2°C 77.9°F25.5°C
Dew Point 76.0°F24.4°C 77.0°F25.0°C 72.0°F22.2°C 73.2°F22.9°C
Winds 3.0 mph SSE4.8 kmh SSE 6.0 mph -9.7 kmh - - 1.0 mph 1.6 kmh
Wind Gusts 3.0 mph4.8 kmh 6.0 mph9.7 kmh - -
Humidity 67% 95% 63% 87%
Pressure 29.87 in1011.5 mb 29.92 in1013.2 mb 29.84 in1010.5 mb -
Precipitation - 0.22 in5.6 mm - -
Hour Temp Dew Point Humidity Winds Wind Gusts Pressure Precip Precip Rate Daily Precip Total
03:40 PM 88.5°F31.4°C 76.0°F24.4°C 67% 3.0 mph SSE4.8 kmh SSE 3.0 mph4.8 kmh 29.87 in1011.5 mb 0.00 in0.0 mm 0.00 in0.0 mm 0.22 in5.6 mm
03:30 PM 88.9°F31.6°C 75.0°F23.9°C 64% 4.0 mph S6.4 kmh S 4.0 mph6.4 kmh 29.87 in1011.5 mb 0.00 in0.0 mm 0.00 in0.0 mm 0.22 in5.6 mm
03:20 PM 88.0°F31.1°C 75.0°F23.9°C 66% 2.0 mph ESE3.2 kmh ESE 4.0 mph6.4 kmh 29.87 in1011.5 mb 0.00 in0.0 mm 0.00 in0.0 mm 0.22 in5.6 mm
03:10 PM 89.4°F31.9°C 76.0°F24.4°C 64% 4.0 mph ESE6.4 kmh ESE 4.0 mph6.4 kmh 29.87 in1011.5 mb 0.00 in0.0 mm 0.00 in0.0 mm 0.22 in5.6 mm
03:01 PM 88.0°F31.1°C 75.0°F23.9°C 66% 1.0 mph SE1.6 kmh SE 1.0 mph1.6 kmh 29.85 in1010.8 mb 0.00 in0.0 mm 0.00 in0.0 mm 0.22 in5.6 mm
02:50 PM 87.6°F30.9°C 74.0°F23.3°C 65% 1.0 mph NNE1.6 kmh NNE 4.0 mph6.4 kmh 29.86 in1011.2 mb 0.00 in0.0 mm 0.00 in0.0 mm 0.22 in5.6 mm
02:40 PM 87.1°F30.6°C 73.0°F22.8°C 64% 1.0 mph NNE1.6 kmh NNE 1.0 mph1.6 kmh 29.87 in1011.5 mb 0.00 in0.0 mm 0.00 in0.0 mm 0.22 in5.6 mm
02:30 PM 87.3°F30.7°C 74.0°F23.3°C 64% 1.0 mph SSW1.6 kmh SSW 1.0 mph1.6 kmh 29.87 in1011.5 mb 0.00 in0.0 mm 0.00 in0.0 mm 0.22 in5.6 mm
02:20 PM 88.7°F31.5°C 74.0°F23.3°C 63% 1.0 mph ESE1.6 kmh ESE 5.0 mph8.0 kmh 29.87 in1011.5 mb 0.00 in0.0 mm 0.00 in0.0 mm 0.22 in5.6 mm
02:10 PM 88.3°F31.3°C 75.0°F23.9°C 65% 2.0 mph NE3.2 kmh NE 3.0 mph4.8 kmh 29.87 in1011.5 mb 0.00 in0.0 mm 0.00 in0.0 mm 0.22 in5.6 mm
02:00 PM 88.9°F31.6°C 76.0°F24.4°C 65% 2.0 mph ESE3.2 kmh ESE 2.0 mph3.2 kmh 29.87 in1011.5 mb 0.00 in0.0 mm 0.00 in0.0 mm 0.22 in5.6 mm
01:50 PM 88.3°F31.3°C 77.0°F25.0°C 69% 1.0 mph ENE1.6 kmh ENE 2.0 mph3.2 kmh 29.89 in1012.2 mb 0.00 in0.0 mm 0.00 in0.0 mm 0.22 in5.6 mm
01:40 PM 87.8°F31.0°C 76.0°F24.4°C 68% 1.0 mph ENE1.6 kmh ENE 1.0 mph1.6 kmh 29.89 in1012.2 mb 0.00 in0.0 mm 0.00 in0.0 mm 0.22 in5.6 mm
01:31 PM 86.7°F30.4°C 77.0°F25.0°C 72% 2.0 mph NNE3.2 kmh NNE 2.0 mph3.2 kmh 29.89 in1012.2 mb 0.00 in0.0 mm 0.00 in0.0 mm 0.22 in5.6 mm
01:20 PM 86.4°F30.2°C 77.0°F25.0°C 73% 2.0 mph SSE3.2 kmh SSE 3.0 mph4.8 kmh 29.89 in1012.2 mb 0.00 in0.0 mm 0.00 in0.0 mm 0.22 in5.6 mm
01:10 PM 86.5°F30.3°C 76.0°F24.4°C 71% 6.0 mph NNE9.7 kmh NNE 6.0 mph9.7 kmh 29.89 in1012.2 mb 0.00 in0.0 mm 0.00 in0.0 mm 0.22 in5.6 mm
01:00 PM 84.9°F29.4°C 75.0°F23.9°C 73% 1.0 mph ESE1.6 kmh ESE 1.0 mph1.6 kmh 29.88 in1011.9 mb 0.00 in0.0 mm 0.00 in0.0 mm 0.22 in5.6 mm
12:50 PM 85.8°F29.9°C 75.0°F23.9°C 71% 4.0 mph NE6.4 kmh NE 5.0 mph8.0 kmh 29.90 in1012.5 mb 0.00 in0.0 mm 0.00 in0.0 mm 0.22 in5.6 mm
12:40 PM 85.1°F29.5°C 76.0°F24.4°C 74% Calm Calm 5.0 mph8.0 kmh 29.90 in1012.5 mb 0.00 in0.0 mm 0.00 in0.0 mm 0.22 in5.6 mm
12:30 PM 86.2°F30.1°C 76.0°F24.4°C 72% 2.0 mph W3.2 kmh W 3.0 mph4.8 kmh 29.88 in1011.9 mb 0.00 in0.0 mm 0.00 in0.0 mm 0.22 in5.6 mm
12:20 PM 84.9°F29.4°C 76.0°F24.4°C 74% 1.0 mph ENE1.6 kmh ENE 3.0 mph4.8 kmh 29.88 in1011.9 mb 0.00 in0.0 mm 0.00 in0.0 mm 0.22 in5.6 mm
12:10 PM 84.6°F29.2°C 76.0°F24.4°C 75% Calm Calm 3.0 mph4.8 kmh 29.88 in1011.9 mb 0.00 in0.0 mm 0.00 in0.0 mm 0.22 in5.6 mm
12:01 PM 85.1°F29.5°C 76.0°F24.4°C 74% 2.0 mph NE3.2 kmh NE 2.0 mph3.2 kmh 29.88 in1011.9 mb 0.00 in0.0 mm 0.00 in0.0 mm 0.22 in5.6 mm
11:50 AM 85.6°F29.8°C 77.0°F25.0°C 75% 1.0 mph SE1.6 kmh SE 4.0 mph6.4 kmh 29.91 in1012.9 mb 0.00 in0.0 mm 0.00 in0.0 mm 0.22 in5.6 mm
11:40 AM 83.1°F28.4°C 76.0°F24.4°C 79% 4.0 mph S6.4 kmh S 4.0 mph6.4 kmh 29.91 in1012.9 mb 0.00 in0.0 mm 0.00 in0.0 mm 0.22 in5.6 mm
11:30 AM 80.8°F27.1°C 75.0°F23.9°C 83% 3.0 mph ESE4.8 kmh ESE 3.0 mph4.8 kmh 29.91 in1012.9 mb 0.00 in0.0 mm 0.00 in0.0 mm 0.22 in5.6 mm
11:20 AM 80.8°F27.1°C 75.0°F23.9°C 82% 2.0 mph SSW3.2 kmh SSW 4.0 mph6.4 kmh 29.91 in1012.9 mb 0.00 in0.0 mm 0.00 in0.0 mm 0.22 in5.6 mm
11:10 AM 79.5°F26.4°C 75.0°F23.9°C 85% Calm Calm 2.0 mph3.2 kmh 29.90 in1012.5 mb 0.00 in0.0 mm 0.00 in0.0 mm 0.22 in5.6 mm
11:01 AM 80.4°F26.9°C 75.0°F23.9°C 84% 2.0 mph ENE3.2 kmh ENE 2.0 mph3.2 kmh 29.90 in1012.5 mb 0.00 in0.0 mm 0.00 in0.0 mm 0.22 in5.6 mm
10:50 AM 78.3°F25.7°C 74.0°F23.3°C 87% Calm Calm 2.0 mph3.2 kmh 29.92 in1013.2 mb 0.00 in0.0 mm 0.00 in0.0 mm 0.22 in5.6 mm
10:40 AM 76.6°F24.8°C 73.0°F22.8°C 90% 1.0 mph ENE1.6 kmh ENE 2.0 mph3.2 kmh 29.92 in1013.2 mb 0.00 in0.0 mm 0.00 in0.0 mm 0.22 in5.6 mm
10:30 AM 75.4°F24.1°C 73.0°F22.8°C 91% Calm Calm 2.0 mph3.2 kmh 29.92 in1013.2 mb 0.00 in0.0 mm 0.00 in0.0 mm 0.22 in5.6 mm
10:20 AM 74.7°F23.7°C 72.0°F22.2°C 92% Calm Calm 3.0 mph4.8 kmh 29.92 in1013.2 mb 0.00 in0.0 mm 0.00 in0.0 mm 0.22 in5.6 mm
10:10 AM 74.5°F23.6°C 72.0°F22.2°C 92% Calm Calm 5.0 mph8.0 kmh 29.92 in1013.2 mb 0.00 in0.0 mm 0.00 in0.0 mm 0.22 in5.6 mm
10:00 AM 74.7°F23.7°C 72.0°F22.2°C 93% Calm Calm 4.0 mph6.4 kmh 29.89 in1012.2 mb 0.00 in0.0 mm 0.00 in0.0 mm 0.20 in5.1 mm
09:50 AM 74.8°F23.8°C 73.0°F22.8°C 94% 1.0 mph ESE1.6 kmh ESE 2.0 mph3.2 kmh 29.91 in1012.9 mb 0.00 in0.0 mm 0.00 in0.0 mm 0.20 in5.1 mm
09:40 AM 74.8°F23.8°C 73.0°F22.8°C 94% Calm Calm 4.0 mph6.4 kmh 29.91 in1012.9 mb 0.00 in0.0 mm 0.00 in0.0 mm 0.19 in4.8 mm
09:20 AM 74.8°F23.8°C 73.0°F22.8°C 94% Calm Calm -- 29.88 in1011.9 mb 0.00 in0.0 mm 0.00 in0.0 mm 0.16 in4.1 mm
09:10 AM 74.8°F23.8°C 73.0°F22.8°C 94% Calm Calm 1.0 mph1.6 kmh 29.88 in1011.9 mb 0.00 in0.0 mm 0.00 in0.0 mm 0.15 in3.8 mm
09:00 AM 74.8°F23.8°C 73.0°F22.8°C 94% Calm Calm -- 29.88 in1011.9 mb 0.00 in0.0 mm 0.00 in0.0 mm 0.15 in3.8 mm
08:50 AM 74.7°F23.7°C 73.0°F22.8°C 94% Calm Calm -- 29.90 in1012.5 mb 0.00 in0.0 mm 0.00 in0.0 mm 0.15 in3.8 mm
08:40 AM 74.5°F23.6°C 73.0°F22.8°C 95% Calm Calm -- 29.86 in1011.2 mb 0.00 in0.0 mm 0.00 in0.0 mm 0.15 in3.8 mm
08:30 AM 74.3°F23.5°C 73.0°F22.8°C 95% Calm Calm -- 29.86 in1011.2 mb 0.00 in0.0 mm 0.00 in0.0 mm 0.15 in3.8 mm
08:20 AM 74.3°F23.5°C 73.0°F22.8°C 95% Calm Calm -- 29.86 in1011.2 mb 0.00 in0.0 mm 0.00 in0.0 mm 0.15 in3.8 mm
08:10 AM 74.1°F23.4°C 73.0°F22.8°C 95% 2.0 mph 3.2 kmh 2.0 mph3.2 kmh 29.86 in1011.2 mb 0.00 in0.0 mm 0.00 in0.0 mm 0.15 in3.8 mm
08:00 AM 74.1°F23.4°C 73.0°F22.8°C 95% Calm Calm 2.0 mph3.2 kmh 29.86 in1011.2 mb 0.00 in0.0 mm 0.00 in0.0 mm 0.15 in3.8 mm
07:50 AM 73.9°F23.3°C 72.0°F22.2°C 95% 1.0 mph E1.6 kmh E 3.0 mph4.8 kmh 29.88 in1011.9 mb 0.00 in0.0 mm 0.00 in0.0 mm 0.15 in3.8 mm
07:40 AM 73.9°F23.3°C 72.0°F22.2°C 95% Calm Calm 4.0 mph6.4 kmh 29.86 in1011.2 mb 0.00 in0.0 mm 0.00 in0.0 mm 0.15 in3.8 mm
07:30 AM 73.8°F23.2°C 72.0°F22.2°C 95% 2.0 mph SE3.2 kmh SE 3.0 mph4.8 kmh 29.86 in1011.2 mb 0.00 in0.0 mm 0.00 in0.0 mm 0.15 in3.8 mm
07:20 AM 73.8°F23.2°C 72.0°F22.2°C 95% Calm Calm 4.0 mph6.4 kmh 29.86 in1011.2 mb 0.00 in0.0 mm 0.00 in0.0 mm 0.15 in3.8 mm
07:10 AM 73.8°F23.2°C 72.0°F22.2°C 95% Calm Calm 2.0 mph3.2 kmh 29.86 in1011.2 mb 0.00 in0.0 mm 0.00 in0.0 mm 0.15 in3.8 mm
07:01 AM 73.8°F23.2°C 72.0°F22.2°C 95% Calm Calm 1.0 mph1.6 kmh 29.86 in1011.2 mb 0.00 in0.0 mm 0.00 in0.0 mm 0.15 in3.8 mm
06:50 AM 73.8°F23.2°C 72.0°F22.2°C 95% Calm Calm 1.0 mph1.6 kmh 29.85 in1010.8 mb 0.00 in0.0 mm 0.00 in0.0 mm 0.15 in3.8 mm
06:40 AM 73.8°F23.2°C 72.0°F22.2°C 95% 3.0 mph 4.8 kmh 3.0 mph4.8 kmh 29.85 in1010.8 mb 0.00 in0.0 mm 0.00 in0.0 mm 0.15 in3.8 mm
06:30 AM 73.8°F23.2°C 72.0°F22.2°C 95% 4.0 mph S6.4 kmh S 4.0 mph6.4 kmh 29.85 in1010.8 mb 0.00 in0.0 mm 0.00 in0.0 mm 0.15 in3.8 mm
06:20 AM 73.8°F23.2°C 72.0°F22.2°C 95% Calm Calm 2.0 mph3.2 kmh 29.85 in1010.8 mb 0.00 in0.0 mm 0.00 in0.0 mm 0.15 in3.8 mm
06:10 AM 73.8°F23.2°C 72.0°F22.2°C 95% 1.0 mph NE1.6 kmh NE 1.0 mph1.6 kmh 29.85 in1010.8 mb 0.00 in0.0 mm 0.00 in0.0 mm 0.15 in3.8 mm
06:00 AM 73.8°F23.2°C 72.0°F22.2°C 95% 2.0 mph ENE3.2 kmh ENE 3.0 mph4.8 kmh 29.85 in1010.8 mb 0.00 in0.0 mm 0.00 in0.0 mm 0.15 in3.8 mm
05:45 AM 73.8°F23.2°C 72.0°F22.2°C 95% Calm Calm 1.0 mph1.6 kmh 29.86 in1011.2 mb 0.00 in0.0 mm 0.00 in0.0 mm 0.15 in3.8 mm
05:39 AM 73.8°F23.2°C 72.0°F22.2°C 95% Calm Calm -- 29.86 in1011.2 mb 0.00 in0.0 mm 0.00 in0.0 mm 0.15 in3.8 mm
05:30 AM 73.8°F23.2°C 72.0°F22.2°C 95% 2.0 mph SSE3.2 kmh SSE 2.0 mph3.2 kmh 29.86 in1011.2 mb 0.00 in0.0 mm 0.00 in0.0 mm 0.15 in3.8 mm
05:20 AM 73.8°F23.2°C 72.0°F22.2°C 95% 1.0 mph E1.6 kmh E 3.0 mph4.8 kmh 29.85 in1010.8 mb 0.00 in0.0 mm 0.00 in0.0 mm 0.15 in3.8 mm
05:10 AM 73.8°F23.2°C 72.0°F22.2°C 95% Calm Calm -- 29.84 in1010.5 mb 0.00 in0.0 mm 0.00 in0.0 mm 0.15 in3.8 mm
05:00 AM 73.8°F23.2°C 72.0°F22.2°C 95% Calm Calm -- 29.84 in1010.5 mb 0.00 in0.0 mm 0.00 in0.0 mm 0.15 in3.8 mm
04:50 AM 73.8°F23.2°C 72.0°F22.2°C 95% Calm Calm -- 29.85 in1010.8 mb 0.00 in0.0 mm 0.00 in0.0 mm 0.15 in3.8 mm
04:40 AM 73.8°F23.2°C 72.0°F22.2°C 94% Calm Calm -- 29.85 in1010.8 mb 0.00 in0.0 mm 0.00 in0.0 mm 0.15 in3.8 mm
04:30 AM 73.8°F23.2°C 72.0°F22.2°C 94% Calm Calm 1.0 mph1.6 kmh 29.85 in1010.8 mb 0.00 in0.0 mm 0.00 in0.0 mm 0.15 in3.8 mm
04:20 AM 73.9°F23.3°C 72.0°F22.2°C 94% Calm Calm 2.0 mph3.2 kmh 29.84 in1010.5 mb 0.00 in0.0 mm 0.00 in0.0 mm 0.15 in3.8 mm
04:10 AM 73.9°F23.3°C 72.0°F22.2°C 94% 2.0 mph NE3.2 kmh NE 2.0 mph3.2 kmh 29.84 in1010.5 mb 0.00 in0.0 mm 0.00 in0.0 mm 0.15 in3.8 mm
04:01 AM 73.9°F23.3°C 72.0°F22.2°C 94% Calm Calm 3.0 mph4.8 kmh 29.84 in1010.5 mb 0.00 in0.0 mm 0.00 in0.0 mm 0.15 in3.8 mm
03:50 AM 73.9°F23.3°C 72.0°F22.2°C 94% Calm Calm -- 29.86 in1011.2 mb 0.00 in0.0 mm 0.00 in0.0 mm 0.15 in3.8 mm
03:40 AM 73.9°F23.3°C 72.0°F22.2°C 94% 2.0 mph NE3.2 kmh NE 2.0 mph3.2 kmh 29.86 in1011.2 mb 0.00 in0.0 mm 0.00 in0.0 mm 0.15 in3.8 mm
03:30 AM 73.9°F23.3°C 72.0°F22.2°C 94% Calm Calm 2.0 mph3.2 kmh 29.86 in1011.2 mb 0.00 in0.0 mm 0.00 in0.0 mm 0.15 in3.8 mm
03:20 AM 73.9°F23.3°C 72.0°F22.2°C 94% Calm Calm 2.0 mph3.2 kmh 29.86 in1011.2 mb 0.00 in0.0 mm 0.00 in0.0 mm 0.15 in3.8 mm
03:10 AM 74.1°F23.4°C 72.0°F22.2°C 94% Calm Calm 3.0 mph4.8 kmh 29.86 in1011.2 mb 0.00 in0.0 mm 0.00 in0.0 mm 0.15 in3.8 mm
03:01 AM 74.1°F23.4°C 72.0°F22.2°C 94% 1.0 mph NNE1.6 kmh NNE 3.0 mph4.8 kmh 29.86 in1011.2 mb 0.00 in0.0 mm 0.00 in0.0 mm 0.15 in3.8 mm
02:50 AM 74.1°F23.4°C 72.0°F22.2°C 94% 1.0 mph NE1.6 kmh NE 2.0 mph3.2 kmh 29.88 in1011.9 mb 0.00 in0.0 mm 0.00 in0.0 mm 0.15 in3.8 mm
02:40 AM 74.3°F23.5°C 72.0°F22.2°C 94% 4.0 mph NE6.4 kmh NE 4.0 mph6.4 kmh 29.88 in1011.9 mb 0.00 in0.0 mm 0.00 in0.0 mm 0.15 in3.8 mm
02:31 AM 74.3°F23.5°C 72.0°F22.2°C 94% 1.0 mph NE1.6 kmh NE 2.0 mph3.2 kmh 29.88 in1011.9 mb 0.00 in0.0 mm 0.00 in0.0 mm 0.15 in3.8 mm
02:20 AM 74.3°F23.5°C 72.0°F22.2°C 94% Calm Calm 1.0 mph1.6 kmh 29.88 in1011.9 mb 0.00 in0.0 mm 0.00 in0.0 mm 0.15 in3.8 mm
02:10 AM 74.5°F23.6°C 73.0°F22.8°C 94% Calm Calm 2.0 mph3.2 kmh 29.88 in1011.9 mb 0.00 in0.0 mm 0.00 in0.0 mm 0.15 in3.8 mm
02:00 AM 74.5°F23.6°C 72.0°F22.2°C 93% Calm Calm 1.0 mph1.6 kmh 29.88 in1011.9 mb 0.00 in0.0 mm 0.00 in0.0 mm 0.15 in3.8 mm
01:50 AM 74.7°F23.7°C 72.0°F22.2°C 93% 1.0 mph SE1.6 kmh SE 2.0 mph3.2 kmh 29.89 in1012.2 mb 0.00 in0.0 mm 0.00 in0.0 mm 0.12 in3.0 mm
01:40 AM 74.8°F23.8°C 72.0°F22.2°C 92% 4.0 mph E6.4 kmh E 4.0 mph6.4 kmh 29.89 in1012.2 mb 0.00 in0.0 mm 0.00 in0.0 mm 0.02 in0.5 mm
01:31 AM 74.8°F23.8°C 72.0°F22.2°C 92% Calm Calm 1.0 mph1.6 kmh 29.89 in1012.2 mb 0.00 in0.0 mm 0.00 in0.0 mm 0.00 in0.0 mm
01:20 AM 74.8°F23.8°C 72.0°F22.2°C 92% Calm Calm 2.0 mph3.2 kmh 29.89 in1012.2 mb 0.00 in0.0 mm 0.00 in0.0 mm 0.00 in0.0 mm
01:10 AM 74.8°F23.8°C 72.0°F22.2°C 92% 1.0 mph ENE1.6 kmh ENE 2.0 mph3.2 kmh 29.89 in1012.2 mb 0.00 in0.0 mm 0.00 in0.0 mm 0.00 in0.0 mm
01:00 AM 74.8°F23.8°C 72.0°F22.2°C 92% Calm Calm -- 29.89 in1012.2 mb 0.00 in0.0 mm 0.00 in0.0 mm 0.00 in0.0 mm
12:50 AM 74.8°F23.8°C 72.0°F22.2°C 92% Calm Calm 3.0 mph4.8 kmh 29.89 in1012.2 mb 0.00 in0.0 mm 0.00 in0.0 mm 0.00 in0.0 mm
12:36 AM 74.8°F23.8°C 72.0°F22.2°C 92% Calm Calm 2.0 mph3.2 kmh 29.89 in1012.2 mb 0.00 in0.0 mm 0.00 in0.0 mm 0.00 in0.0 mm
12:30 AM 74.8°F23.8°C 72.0°F22.2°C 92% Calm Calm -- 29.89 in1012.2 mb 0.00 in0.0 mm 0.00 in0.0 mm 0.00 in0.0 mm
12:20 AM 74.8°F23.8°C 72.0°F22.2°C 92% 2.0 mph ESE3.2 kmh ESE 2.0 mph3.2 kmh 29.89 in1012.2 mb 0.00 in0.0 mm 0.00 in0.0 mm 0.00 in0.0 mm
12:10 AM 74.8°F23.8°C 72.0°F22.2°C 92% 2.0 mph NNE3.2 kmh NNE 3.0 mph4.8 kmh 29.89 in1012.2 mb 0.00 in0.0 mm 0.00 in0.0 mm 0.00 in0.0 mm
12:01 AM 74.8°F23.8°C 72.0°F22.2°C 92% Calm Calm 2.0 mph3.2 kmh 29.89 in1012.2 mb 0.00 in0.0 mm 0.00 in0.0 mm 0.00 in0.0 mm